الصفحة الرئيسية
METAR-TAF:

METAR-TAF

مطار :

Tena, الإكوادور

دائرة عرض: 01-03-35S, خط طول: 77-35-00W, ارتفاع: 376 متر

مراقبة الطقس الحالي

تاريخ ووقت الإصدار 17 دقيقة قبل الساعة 17:00UTC
ريح 4 عقدة من الشرق
درجة الحرارة 29°درجة مئوية
الرطوبة 74%
ضغط 1013 hPa
الرؤية 10 كم أو أكثر
غيوم قليلة على ارتفاع 2000 قدم
غيوم مفككة على ارتفاع 10000 قدم

METAR: SEJD 041700Z 09004KT 9999 FEW020 BKN100 29/24 Q1013 RMK A2994

زمن: 12:17 (17:17 UTC)


TAF: مفقودة

أرصاد الطقس والتوقعات من أكثر من 4000 مطار (تقارير الطقس للمطار METAR والتنبؤ بالطقس بالمطارTAF).

المحطات المتاحة هي النقط الصفراء والحمراء على الخريطة.

حرك المؤشر فوق النقطة لمعرفة اسم المحطة.

ثم انقر لمعرفة أرصاد وتوقعات الطقس.

لتغيير الخارطة: اضغط على الأزرار الخضراء مع رمز الصليب الأسود للتكبير. على الزر الأخضر مع شرطة للتصغير، أو على الأسهم الخضراء للخرائط المجاورة.


METAR-TAF: